Terminal Aerodrome Forecast
Issued by NWS

Home | Current Version | Previous Version | Text Only | Print | Product List | Glossary On
Versions: 1 2 3 4 5 6 7 8 9 10 11 12 13 14 15 16 17 18 19 20 21 22 23 24 25 26 27 28 29 30 31
000
FTUS42 KJAX 181500 AAB
TAFCRG
TAF AMD
KCRG 181510Z 1815/1912 08013G21KT 5SM -SHRA BR BKN020 OVC030
     FM181900 11016G25KT 2SM SHRA BR OVC007
     FM190400 16013G20KT 3SM -SHRA BR BKN010=

USA.gov is the U.S. government's official web portal to all federal, state and local government web resources and services.